sensor_id;sensor_type;location;lat;lon;timestamp;temperature;humidity
12688;DHT22;6408;59.388;17.798;2024-02-21T00:02:42;0.50;99.90
12688;DHT22;6408;59.388;17.798;2024-02-21T00:05:09;0.50;99.90
12688;DHT22;6408;59.388;17.798;2024-02-21T00:07:36;0.50;99.90
12688;DHT22;6408;59.388;17.798;2024-02-21T00:10:13;0.50;99.90
12688;DHT22;6408;59.388;17.798;2024-02-21T00:12:46;0.40;99.90
12688;DHT22;6408;59.388;17.798;2024-02-21T00:15:13;0.50;99.90
12688;DHT22;6408;59.388;17.798;2024-02-21T00:17:42;0.50;99.90
12688;DHT22;6408;59.388;17.798;2024-02-21T00:20:10;0.50;99.90
12688;DHT22;6408;59.388;17.798;2024-02-21T00:22:39;0.50;99.90
12688;DHT22;6408;59.388;17.798;2024-02-21T00:25:09;0.50;99.90
12688;DHT22;6408;59.388;17.798;2024-02-21T00:27:36;0.50;99.90
12688;DHT22;6408;59.388;17.798;2024-02-21T00:30:05;0.40;99.90
12688;DHT22;6408;59.388;17.798;2024-02-21T00:32:33;0.50;99.90
12688;DHT22;6408;59.388;17.798;2024-02-21T00:35:01;0.50;99.90
12688;DHT22;6408;59.388;17.798;2024-02-21T00:37:28;0.50;99.90
12688;DHT22;6408;59.388;17.798;2024-02-21T00:39:55;0.50;99.90
12688;DHT22;6408;59.388;17.798;2024-02-21T00:42:24;0.50;99.90
12688;DHT22;6408;59.388;17.798;2024-02-21T00:44:51;0.50;99.90
12688;DHT22;6408;59.388;17.798;2024-02-21T00:47:19;0.50;99.90
12688;DHT22;6408;59.388;17.798;2024-02-21T00:49:46;0.50;99.90
12688;DHT22;6408;59.388;17.798;2024-02-21T00:52:14;0.50;99.90
12688;DHT22;6408;59.388;17.798;2024-02-21T00:54:42;0.60;99.90
12688;DHT22;6408;59.388;17.798;2024-02-21T00:57:09;0.60;99.90
12688;DHT22;6408;59.388;17.798;2024-02-21T00:59:39;0.60;99.90
12688;DHT22;6408;59.388;17.798;2024-02-21T01:02:07;0.60;99.90
12688;DHT22;6408;59.388;17.798;2024-02-21T01:04:36;0.60;99.90
12688;DHT22;6408;59.388;17.798;2024-02-21T01:07:03;0.60;99.90
12688;DHT22;6408;59.388;17.798;2024-02-21T01:09:30;0.60;99.90
12688;DHT22;6408;59.388;17.798;2024-02-21T01:11:58;0.60;99.90
12688;DHT22;6408;59.388;17.798;2024-02-21T01:14:26;0.60;99.90
12688;DHT22;6408;59.388;17.798;2024-02-21T01:16:56;0.60;99.90
12688;DHT22;6408;59.388;17.798;2024-02-21T01:19:24;0.70;99.90
12688;DHT22;6408;59.388;17.798;2024-02-21T01:21:51;0.60;99.90
12688;DHT22;6408;59.388;17.798;2024-02-21T01:24:18;0.60;99.90
12688;DHT22;6408;59.388;17.798;2024-02-21T01:26:45;0.70;99.90
12688;DHT22;6408;59.388;17.798;2024-02-21T01:29:13;0.70;99.90
12688;DHT22;6408;59.388;17.798;2024-02-21T01:31:40;0.70;99.90
12688;DHT22;6408;59.388;17.798;2024-02-21T01:34:09;0.70;99.90
12688;DHT22;6408;59.388;17.798;2024-02-21T01:36:37;0.60;99.90
12688;DHT22;6408;59.388;17.798;2024-02-21T01:39:05;0.60;99.90
12688;DHT22;6408;59.388;17.798;2024-02-21T01:41:32;0.60;99.90
12688;DHT22;6408;59.388;17.798;2024-02-21T01:43:59;0.70;99.90
12688;DHT22;6408;59.388;17.798;2024-02-21T01:46:27;0.70;99.90
12688;DHT22;6408;59.388;17.798;2024-02-21T01:48:56;0.70;99.90
12688;DHT22;6408;59.388;17.798;2024-02-21T01:51:29;0.70;99.90
12688;DHT22;6408;59.388;17.798;2024-02-21T01:53:57;0.70;99.90
12688;DHT22;6408;59.388;17.798;2024-02-21T01:56:24;0.70;99.90
12688;DHT22;6408;59.388;17.798;2024-02-21T01:58:52;0.80;99.90
12688;DHT22;6408;59.388;17.798;2024-02-21T02:01:20;0.80;99.90
12688;DHT22;6408;59.388;17.798;2024-02-21T02:03:47;0.80;99.90
12688;DHT22;6408;59.388;17.798;2024-02-21T02:06:14;0.70;99.90
12688;DHT22;6408;59.388;17.798;2024-02-21T02:08:46;0.80;99.90
12688;DHT22;6408;59.388;17.798;2024-02-21T02:11:15;0.80;99.90
12688;DHT22;6408;59.388;17.798;2024-02-21T02:13:42;0.80;99.90
12688;DHT22;6408;59.388;17.798;2024-02-21T02:16:09;0.80;99.90
12688;DHT22;6408;59.388;17.798;2024-02-21T02:18:36;0.80;99.90
12688;DHT22;6408;59.388;17.798;2024-02-21T02:21:05;0.80;99.90
12688;DHT22;6408;59.388;17.798;2024-02-21T02:23:40;0.80;99.90
12688;DHT22;6408;59.388;17.798;2024-02-21T02:26:10;0.80;99.90
12688;DHT22;6408;59.388;17.798;2024-02-21T02:28:37;0.80;99.90
12688;DHT22;6408;59.388;17.798;2024-02-21T02:31:07;0.80;99.90
12688;DHT22;6408;59.388;17.798;2024-02-21T02:33:34;0.80;99.90
12688;DHT22;6408;59.388;17.798;2024-02-21T02:36:02;0.90;99.90
12688;DHT22;6408;59.388;17.798;2024-02-21T02:38:31;0.90;99.90
12688;DHT22;6408;59.388;17.798;2024-02-21T02:41:00;1.00;99.90
12688;DHT22;6408;59.388;17.798;2024-02-21T02:43:27;0.90;99.90
12688;DHT22;6408;59.388;17.798;2024-02-21T02:45:54;1.00;99.90
12688;DHT22;6408;59.388;17.798;2024-02-21T02:48:21;0.90;99.90
12688;DHT22;6408;59.388;17.798;2024-02-21T02:50:49;1.00;99.90
12688;DHT22;6408;59.388;17.798;2024-02-21T02:53:16;0.90;99.90
12688;DHT22;6408;59.388;17.798;2024-02-21T02:55:45;0.90;99.90
12688;DHT22;6408;59.388;17.798;2024-02-21T02:58:15;1.00;99.90
12688;DHT22;6408;59.388;17.798;2024-02-21T03:00:42;1.00;99.90
12688;DHT22;6408;59.388;17.798;2024-02-21T03:03:09;1.00;99.90
12688;DHT22;6408;59.388;17.798;2024-02-21T03:05:36;1.00;99.90
12688;DHT22;6408;59.388;17.798;2024-02-21T03:08:04;1.00;99.90
12688;DHT22;6408;59.388;17.798;2024-02-21T03:10:32;1.00;99.90
12688;DHT22;6408;59.388;17.798;2024-02-21T03:13:00;1.00;99.90
12688;DHT22;6408;59.388;17.798;2024-02-21T03:15:30;1.10;99.90
12688;DHT22;6408;59.388;17.798;2024-02-21T03:17:57;1.10;99.90
12688;DHT22;6408;59.388;17.798;2024-02-21T03:20:24;1.10;99.90
12688;DHT22;6408;59.388;17.798;2024-02-21T03:22:51;1.10;99.90
12688;DHT22;6408;59.388;17.798;2024-02-21T03:25:19;1.10;99.90
12688;DHT22;6408;59.388;17.798;2024-02-21T03:27:46;1.10;99.90
12688;DHT22;6408;59.388;17.798;2024-02-21T03:30:13;1.10;99.90
12688;DHT22;6408;59.388;17.798;2024-02-21T03:32:42;1.10;99.90
12688;DHT22;6408;59.388;17.798;2024-02-21T03:35:11;1.10;99.90
12688;DHT22;6408;59.388;17.798;2024-02-21T03:37:38;1.10;99.90
12688;DHT22;6408;59.388;17.798;2024-02-21T03:40:09;1.20;99.90
12688;DHT22;6408;59.388;17.798;2024-02-21T03:42:38;1.20;99.90
12688;DHT22;6408;59.388;17.798;2024-02-21T03:45:06;1.20;99.90
12688;DHT22;6408;59.388;17.798;2024-02-21T03:47:33;1.20;99.90
12688;DHT22;6408;59.388;17.798;2024-02-21T03:50:04;1.20;99.90
12688;DHT22;6408;59.388;17.798;2024-02-21T03:52:32;1.20;99.90
12688;DHT22;6408;59.388;17.798;2024-02-21T03:55:01;1.30;99.90
12688;DHT22;6408;59.388;17.798;2024-02-21T03:57:29;1.30;99.90
12688;DHT22;6408;59.388;17.798;2024-02-21T03:59:56;1.30;99.90
12688;DHT22;6408;59.388;17.798;2024-02-21T04:02:23;1.40;99.90
12688;DHT22;6408;59.388;17.798;2024-02-21T04:04:52;1.30;99.90
12688;DHT22;6408;59.388;17.798;2024-02-21T04:07:21;1.40;99.90
12688;DHT22;6408;59.388;17.798;2024-02-21T04:09:49;1.30;99.90
12688;DHT22;6408;59.388;17.798;2024-02-21T04:12:17;1.40;99.90
12688;DHT22;6408;59.388;17.798;2024-02-21T04:14:44;1.40;99.90
12688;DHT22;6408;59.388;17.798;2024-02-21T04:17:12;1.40;99.90
12688;DHT22;6408;59.388;17.798;2024-02-21T04:19:40;1.40;99.90
12688;DHT22;6408;59.388;17.798;2024-02-21T04:22:07;1.40;99.90
12688;DHT22;6408;59.388;17.798;2024-02-21T04:24:36;1.40;99.90
12688;DHT22;6408;59.388;17.798;2024-02-21T04:27:04;1.40;99.90
12688;DHT22;6408;59.388;17.798;2024-02-21T04:29:31;1.50;99.90
12688;DHT22;6408;59.388;17.798;2024-02-21T04:32:01;1.50;99.90
12688;DHT22;6408;59.388;17.798;2024-02-21T04:34:29;1.50;99.90
12688;DHT22;6408;59.388;17.798;2024-02-21T04:36:58;1.50;99.90
12688;DHT22;6408;59.388;17.798;2024-02-21T04:39:25;1.50;99.90
12688;DHT22;6408;59.388;17.798;2024-02-21T04:41:54;1.50;99.90
12688;DHT22;6408;59.388;17.798;2024-02-21T04:44:22;1.50;99.90
12688;DHT22;6408;59.388;17.798;2024-02-21T04:46:49;1.60;99.90
12688;DHT22;6408;59.388;17.798;2024-02-21T04:49:17;1.60;99.90
12688;DHT22;6408;59.388;17.798;2024-02-21T04:51:44;1.60;99.90
12688;DHT22;6408;59.388;17.798;2024-02-21T04:54:12;1.60;99.90
12688;DHT22;6408;59.388;17.798;2024-02-21T04:56:39;1.60;99.90
12688;DHT22;6408;59.388;17.798;2024-02-21T04:59:08;1.60;99.90
12688;DHT22;6408;59.388;17.798;2024-02-21T05:01:35;1.70;99.90
12688;DHT22;6408;59.388;17.798;2024-02-21T05:04:03;1.70;99.90
12688;DHT22;6408;59.388;17.798;2024-02-21T05:06:30;1.70;99.90
12688;DHT22;6408;59.388;17.798;2024-02-21T05:08:57;1.70;99.90
12688;DHT22;6408;59.388;17.798;2024-02-21T05:11:24;1.70;99.90
12688;DHT22;6408;59.388;17.798;2024-02-21T05:13:52;1.70;99.90
12688;DHT22;6408;59.388;17.798;2024-02-21T05:16:24;1.70;99.90
12688;DHT22;6408;59.388;17.798;2024-02-21T05:18:53;1.80;99.90
12688;DHT22;6408;59.388;17.798;2024-02-21T05:21:22;1.80;99.90
12688;DHT22;6408;59.388;17.798;2024-02-21T05:23:50;1.80;99.90
12688;DHT22;6408;59.388;17.798;2024-02-21T05:26:23;1.80;99.90
12688;DHT22;6408;59.388;17.798;2024-02-21T05:28:50;1.80;99.90
12688;DHT22;6408;59.388;17.798;2024-02-21T05:31:18;1.80;99.90
12688;DHT22;6408;59.388;17.798;2024-02-21T05:33:48;1.80;99.90
12688;DHT22;6408;59.388;17.798;2024-02-21T05:36:16;1.80;99.90
12688;DHT22;6408;59.388;17.798;2024-02-21T05:38:44;1.90;99.90
12688;DHT22;6408;59.388;17.798;2024-02-21T05:41:12;1.90;99.90
12688;DHT22;6408;59.388;17.798;2024-02-21T05:43:39;1.80;99.90
12688;DHT22;6408;59.388;17.798;2024-02-21T05:46:07;1.90;99.90
12688;DHT22;6408;59.388;17.798;2024-02-21T05:48:35;1.90;99.90
12688;DHT22;6408;59.388;17.798;2024-02-21T05:51:04;1.90;99.90
12688;DHT22;6408;59.388;17.798;2024-02-21T05:53:32;1.90;99.90
12688;DHT22;6408;59.388;17.798;2024-02-21T05:56:04;2.00;99.90
12688;DHT22;6408;59.388;17.798;2024-02-21T05:58:37;2.00;99.90
12688;DHT22;6408;59.388;17.798;2024-02-21T06:01:04;2.00;99.90
12688;DHT22;6408;59.388;17.798;2024-02-21T06:03:32;2.00;99.90
12688;DHT22;6408;59.388;17.798;2024-02-21T06:06:11;2.00;99.90
12688;DHT22;6408;59.388;17.798;2024-02-21T06:08:40;2.00;99.90
12688;DHT22;6408;59.388;17.798;2024-02-21T06:11:09;2.00;99.90
12688;DHT22;6408;59.388;17.798;2024-02-21T06:13:38;2.00;99.90
12688;DHT22;6408;59.388;17.798;2024-02-21T06:16:09;2.00;99.90
12688;DHT22;6408;59.388;17.798;2024-02-21T06:18:37;2.00;99.90
12688;DHT22;6408;59.388;17.798;2024-02-21T06:21:05;2.00;99.90
12688;DHT22;6408;59.388;17.798;2024-02-21T06:23:38;2.00;99.90
12688;DHT22;6408;59.388;17.798;2024-02-21T06:26:05;2.00;99.90
12688;DHT22;6408;59.388;17.798;2024-02-21T06:28:32;2.00;99.90
12688;DHT22;6408;59.388;17.798;2024-02-21T06:30:59;2.00;99.90
12688;DHT22;6408;59.388;17.798;2024-02-21T06:33:27;2.10;99.90
12688;DHT22;6408;59.388;17.798;2024-02-21T06:35:54;2.10;99.90
12688;DHT22;6408;59.388;17.798;2024-02-21T06:38:21;2.10;99.90
12688;DHT22;6408;59.388;17.798;2024-02-21T06:40:50;2.10;99.90
12688;DHT22;6408;59.388;17.798;2024-02-21T06:43:19;2.20;99.90
12688;DHT22;6408;59.388;17.798;2024-02-21T06:45:46;2.10;99.90
12688;DHT22;6408;59.388;17.798;2024-02-21T06:48:17;2.10;99.90
12688;DHT22;6408;59.388;17.798;2024-02-21T06:50:45;2.10;99.90
12688;DHT22;6408;59.388;17.798;2024-02-21T06:53:12;2.20;99.90
12688;DHT22;6408;59.388;17.798;2024-02-21T06:55:39;2.20;99.90
12688;DHT22;6408;59.388;17.798;2024-02-21T06:58:07;2.30;99.90
12688;DHT22;6408;59.388;17.798;2024-02-21T07:00:38;2.30;99.90
12688;DHT22;6408;59.388;17.798;2024-02-21T07:03:05;2.30;99.90
12688;DHT22;6408;59.388;17.798;2024-02-21T07:05:32;2.30;99.90
12688;DHT22;6408;59.388;17.798;2024-02-21T07:08:00;2.30;99.90
12688;DHT22;6408;59.388;17.798;2024-02-21T07:10:27;2.30;99.90
12688;DHT22;6408;59.388;17.798;2024-02-21T07:12:54;2.30;99.90
12688;DHT22;6408;59.388;17.798;2024-02-21T07:15:23;2.40;99.90
12688;DHT22;6408;59.388;17.798;2024-02-21T07:17:52;2.40;99.90
12688;DHT22;6408;59.388;17.798;2024-02-21T07:20:20;2.40;99.90
12688;DHT22;6408;59.388;17.798;2024-02-21T07:22:47;2.40;99.90
12688;DHT22;6408;59.388;17.798;2024-02-21T07:25:14;2.40;99.90
12688;DHT22;6408;59.388;17.798;2024-02-21T07:27:42;2.50;99.90
12688;DHT22;6408;59.388;17.798;2024-02-21T07:30:09;2.40;99.90
12688;DHT22;6408;59.388;17.798;2024-02-21T07:32:38;2.50;99.90
12688;DHT22;6408;59.388;17.798;2024-02-21T07:35:06;2.50;99.90
12688;DHT22;6408;59.388;17.798;2024-02-21T07:37:36;2.60;99.90
12688;DHT22;6408;59.388;17.798;2024-02-21T07:40:05;2.60;99.90
12688;DHT22;6408;59.388;17.798;2024-02-21T07:42:33;2.60;99.90
12688;DHT22;6408;59.388;17.798;2024-02-21T07:45:00;2.60;99.90
12688;DHT22;6408;59.388;17.798;2024-02-21T07:47:29;2.70;99.90
12688;DHT22;6408;59.388;17.798;2024-02-21T07:49:57;2.60;99.90
12688;DHT22;6408;59.388;17.798;2024-02-21T07:52:24;2.60;99.90
12688;DHT22;6408;59.388;17.798;2024-02-21T07:54:52;2.60;99.90
12688;DHT22;6408;59.388;17.798;2024-02-21T07:57:19;2.60;99.90
12688;DHT22;6408;59.388;17.798;2024-02-21T07:59:46;2.60;99.90
12688;DHT22;6408;59.388;17.798;2024-02-21T08:02:13;2.70;99.90
12688;DHT22;6408;59.388;17.798;2024-02-21T08:04:40;2.70;99.90
12688;DHT22;6408;59.388;17.798;2024-02-21T08:07:10;2.70;99.90
12688;DHT22;6408;59.388;17.798;2024-02-21T08:09:39;2.70;99.90
12688;DHT22;6408;59.388;17.798;2024-02-21T08:12:07;2.80;99.90
12688;DHT22;6408;59.388;17.798;2024-02-21T08:14:34;2.80;99.90
12688;DHT22;6408;59.388;17.798;2024-02-21T08:17:02;2.80;99.90
12688;DHT22;6408;59.388;17.798;2024-02-21T08:19:29;2.90;99.90
12688;DHT22;6408;59.388;17.798;2024-02-21T08:21:57;2.90;99.90
12688;DHT22;6408;59.388;17.798;2024-02-21T08:24:25;2.90;99.90
12688;DHT22;6408;59.388;17.798;2024-02-21T08:26:53;2.90;99.90
12688;DHT22;6408;59.388;17.798;2024-02-21T08:29:20;2.90;99.90
12688;DHT22;6408;59.388;17.798;2024-02-21T08:31:47;3.00;99.90
12688;DHT22;6408;59.388;17.798;2024-02-21T08:34:15;2.90;99.90
12688;DHT22;6408;59.388;17.798;2024-02-21T08:36:42;3.00;99.90
12688;DHT22;6408;59.388;17.798;2024-02-21T08:39:10;3.00;99.90
12688;DHT22;6408;59.388;17.798;2024-02-21T08:41:41;3.00;99.90
12688;DHT22;6408;59.388;17.798;2024-02-21T08:44:09;3.00;99.90
12688;DHT22;6408;59.388;17.798;2024-02-21T08:46:36;3.00;99.90
12688;DHT22;6408;59.388;17.798;2024-02-21T08:49:05;3.00;99.90
12688;DHT22;6408;59.388;17.798;2024-02-21T08:51:33;3.10;99.90
12688;DHT22;6408;59.388;17.798;2024-02-21T08:54:01;3.10;99.90
12688;DHT22;6408;59.388;17.798;2024-02-21T08:56:30;3.10;99.90
12688;DHT22;6408;59.388;17.798;2024-02-21T08:58:58;3.10;99.90
12688;DHT22;6408;59.388;17.798;2024-02-21T09:01:26;3.10;99.90
12688;DHT22;6408;59.388;17.798;2024-02-21T09:03:53;3.20;99.90
12688;DHT22;6408;59.388;17.798;2024-02-21T09:06:22;3.20;99.90
12688;DHT22;6408;59.388;17.798;2024-02-21T09:08:49;3.20;99.90
12688;DHT22;6408;59.388;17.798;2024-02-21T09:11:17;3.20;99.90
12688;DHT22;6408;59.388;17.798;2024-02-21T09:13:44;3.30;99.90
12688;DHT22;6408;59.388;17.798;2024-02-21T09:16:13;3.30;99.90
12688;DHT22;6408;59.388;17.798;2024-02-21T09:18:40;3.30;99.90
12688;DHT22;6408;59.388;17.798;2024-02-21T09:21:08;3.30;99.90
12688;DHT22;6408;59.388;17.798;2024-02-21T09:23:35;3.30;99.90
12688;DHT22;6408;59.388;17.798;2024-02-21T09:26:02;3.40;99.90
12688;DHT22;6408;59.388;17.798;2024-02-21T09:28:29;3.40;99.90
12688;DHT22;6408;59.388;17.798;2024-02-21T09:30:56;3.50;99.90
12688;DHT22;6408;59.388;17.798;2024-02-21T09:33:25;3.50;99.90
12688;DHT22;6408;59.388;17.798;2024-02-21T09:35:52;3.50;99.90
12688;DHT22;6408;59.388;17.798;2024-02-21T09:38:20;3.60;99.90
12688;DHT22;6408;59.388;17.798;2024-02-21T09:40:48;3.60;99.90
12688;DHT22;6408;59.388;17.798;2024-02-21T09:43:18;3.60;99.90
12688;DHT22;6408;59.388;17.798;2024-02-21T09:45:49;3.70;99.90
12688;DHT22;6408;59.388;17.798;2024-02-21T09:48:35;3.70;99.90
12688;DHT22;6408;59.388;17.798;2024-02-21T09:51:06;3.80;99.90
12688;DHT22;6408;59.388;17.798;2024-02-21T09:53:34;3.90;99.90
12688;DHT22;6408;59.388;17.798;2024-02-21T09:56:02;3.90;99.90
12688;DHT22;6408;59.388;17.798;2024-02-21T09:58:32;3.90;99.90
12688;DHT22;6408;59.388;17.798;2024-02-21T10:00:59;3.90;99.90
12688;DHT22;6408;59.388;17.798;2024-02-21T10:03:28;3.90;99.90
12688;DHT22;6408;59.388;17.798;2024-02-21T10:05:55;4.00;99.90
12688;DHT22;6408;59.388;17.798;2024-02-21T10:08:24;4.00;99.90
12688;DHT22;6408;59.388;17.798;2024-02-21T10:10:51;4.00;99.90
12688;DHT22;6408;59.388;17.798;2024-02-21T10:13:25;4.10;99.90
12688;DHT22;6408;59.388;17.798;2024-02-21T10:16:01;4.10;99.90
12688;DHT22;6408;59.388;17.798;2024-02-21T10:18:31;4.10;99.90
12688;DHT22;6408;59.388;17.798;2024-02-21T10:21:02;4.10;99.90
12688;DHT22;6408;59.388;17.798;2024-02-21T10:23:41;4.00;99.90
12688;DHT22;6408;59.388;17.798;2024-02-21T10:26:13;4.00;99.90
12688;DHT22;6408;59.388;17.798;2024-02-21T10:29:02;4.00;99.90
12688;DHT22;6408;59.388;17.798;2024-02-21T10:31:30;4.00;99.90
12688;DHT22;6408;59.388;17.798;2024-02-21T10:34:00;4.10;99.90
12688;DHT22;6408;59.388;17.798;2024-02-21T10:36:30;4.10;99.90
12688;DHT22;6408;59.388;17.798;2024-02-21T10:39:04;4.10;99.90
12688;DHT22;6408;59.388;17.798;2024-02-21T10:41:31;4.10;99.90
12688;DHT22;6408;59.388;17.798;2024-02-21T10:44:08;4.20;99.90
12688;DHT22;6408;59.388;17.798;2024-02-21T10:46:38;4.20;99.90
12688;DHT22;6408;59.388;17.798;2024-02-21T10:49:12;4.20;99.90
12688;DHT22;6408;59.388;17.798;2024-02-21T10:51:44;4.10;99.90
12688;DHT22;6408;59.388;17.798;2024-02-21T10:54:35;4.10;99.90
12688;DHT22;6408;59.388;17.798;2024-02-21T10:57:09;4.10;99.90
12688;DHT22;6408;59.388;17.798;2024-02-21T10:59:40;4.10;99.90
12688;DHT22;6408;59.388;17.798;2024-02-21T11:02:08;4.10;99.90
12688;DHT22;6408;59.388;17.798;2024-02-21T11:04:37;4.10;99.90
12688;DHT22;6408;59.388;17.798;2024-02-21T11:07:05;4.10;99.90
12688;DHT22;6408;59.388;17.798;2024-02-21T11:09:34;4.10;99.90
12688;DHT22;6408;59.388;17.798;2024-02-21T11:12:04;4.10;99.90
12688;DHT22;6408;59.388;17.798;2024-02-21T11:14:31;4.10;99.90
12688;DHT22;6408;59.388;17.798;2024-02-21T11:17:02;4.10;99.90
12688;DHT22;6408;59.388;17.798;2024-02-21T11:19:39;4.10;99.90
12688;DHT22;6408;59.388;17.798;2024-02-21T11:22:15;4.10;99.90
12688;DHT22;6408;59.388;17.798;2024-02-21T11:24:43;4.10;99.90
12688;DHT22;6408;59.388;17.798;2024-02-21T11:27:12;4.10;99.90
12688;DHT22;6408;59.388;17.798;2024-02-21T11:29:46;4.10;99.90
12688;DHT22;6408;59.388;17.798;2024-02-21T11:32:15;4.10;99.90
12688;DHT22;6408;59.388;17.798;2024-02-21T11:34:57;4.10;99.90
12688;DHT22;6408;59.388;17.798;2024-02-21T11:37:28;4.10;99.90
12688;DHT22;6408;59.388;17.798;2024-02-21T11:40:00;4.10;99.90
12688;DHT22;6408;59.388;17.798;2024-02-21T11:42:33;4.10;99.90
12688;DHT22;6408;59.388;17.798;2024-02-21T11:45:01;4.10;99.90
12688;DHT22;6408;59.388;17.798;2024-02-21T11:47:29;4.10;99.90
12688;DHT22;6408;59.388;17.798;2024-02-21T11:49:58;4.00;99.90
12688;DHT22;6408;59.388;17.798;2024-02-21T11:52:28;4.00;99.90
12688;DHT22;6408;59.388;17.798;2024-02-21T11:54:56;3.90;99.90
12688;DHT22;6408;59.388;17.798;2024-02-21T11:57:33;3.90;99.90
12688;DHT22;6408;59.388;17.798;2024-02-21T12:00:14;3.90;99.90
12688;DHT22;6408;59.388;17.798;2024-02-21T12:02:42;3.90;99.90
12688;DHT22;6408;59.388;17.798;2024-02-21T12:05:11;3.90;99.90
12688;DHT22;6408;59.388;17.798;2024-02-21T12:07:39;3.90;99.90
12688;DHT22;6408;59.388;17.798;2024-02-21T12:10:09;4.00;99.90
12688;DHT22;6408;59.388;17.798;2024-02-21T12:12:50;3.90;99.90
12688;DHT22;6408;59.388;17.798;2024-02-21T12:15:24;3.90;99.90
12688;DHT22;6408;59.388;17.798;2024-02-21T12:17:51;4.00;99.90
12688;DHT22;6408;59.388;17.798;2024-02-21T12:20:20;4.00;99.90
12688;DHT22;6408;59.388;17.798;2024-02-21T12:22:50;4.00;99.90
12688;DHT22;6408;59.388;17.798;2024-02-21T12:25:19;4.00;99.90
12688;DHT22;6408;59.388;17.798;2024-02-21T12:27:53;4.10;99.90
12688;DHT22;6408;59.388;17.798;2024-02-21T12:30:26;4.10;99.90
12688;DHT22;6408;59.388;17.798;2024-02-21T12:32:57;4.10;99.90
12688;DHT22;6408;59.388;17.798;2024-02-21T12:35:29;4.20;99.90
12688;DHT22;6408;59.388;17.798;2024-02-21T12:38:00;4.20;99.90
12688;DHT22;6408;59.388;17.798;2024-02-21T12:40:28;4.20;99.90
12688;DHT22;6408;59.388;17.798;2024-02-21T12:42:58;4.20;99.90
12688;DHT22;6408;59.388;17.798;2024-02-21T12:45:29;4.20;99.90
12688;DHT22;6408;59.388;17.798;2024-02-21T12:47:56;4.20;99.90
12688;DHT22;6408;59.388;17.798;2024-02-21T12:50:23;4.20;99.90
12688;DHT22;6408;59.388;17.798;2024-02-21T12:52:55;4.20;99.90
12688;DHT22;6408;59.388;17.798;2024-02-21T12:55:24;4.20;99.90
12688;DHT22;6408;59.388;17.798;2024-02-21T12:57:53;4.20;99.90
12688;DHT22;6408;59.388;17.798;2024-02-21T13:00:22;4.20;99.90
12688;DHT22;6408;59.388;17.798;2024-02-21T13:02:55;4.20;99.90
12688;DHT22;6408;59.388;17.798;2024-02-21T13:05:22;4.20;99.90
12688;DHT22;6408;59.388;17.798;2024-02-21T13:07:50;4.10;99.90
12688;DHT22;6408;59.388;17.798;2024-02-21T13:10:22;4.10;99.90
12688;DHT22;6408;59.388;17.798;2024-02-21T13:12:54;4.10;99.90
12688;DHT22;6408;59.388;17.798;2024-02-21T13:15:21;4.10;99.90
12688;DHT22;6408;59.388;17.798;2024-02-21T13:17:50;4.10;99.90
12688;DHT22;6408;59.388;17.798;2024-02-21T13:20:18;4.10;99.90
12688;DHT22;6408;59.388;17.798;2024-02-21T13:22:47;4.10;99.90
12688;DHT22;6408;59.388;17.798;2024-02-21T13:25:18;4.10;99.90
12688;DHT22;6408;59.388;17.798;2024-02-21T13:27:47;4.10;99.90
12688;DHT22;6408;59.388;17.798;2024-02-21T13:30:14;4.10;99.90
12688;DHT22;6408;59.388;17.798;2024-02-21T13:32:43;4.10;99.90
12688;DHT22;6408;59.388;17.798;2024-02-21T13:35:14;4.10;99.90
12688;DHT22;6408;59.388;17.798;2024-02-21T13:37:42;4.10;99.90
12688;DHT22;6408;59.388;17.798;2024-02-21T13:40:11;4.10;99.90
12688;DHT22;6408;59.388;17.798;2024-02-21T13:42:41;4.10;99.90
12688;DHT22;6408;59.388;17.798;2024-02-21T13:45:12;4.10;99.90
12688;DHT22;6408;59.388;17.798;2024-02-21T13:47:40;4.10;99.90
12688;DHT22;6408;59.388;17.798;2024-02-21T13:50:08;4.10;99.90
12688;DHT22;6408;59.388;17.798;2024-02-21T13:52:37;4.10;99.90
12688;DHT22;6408;59.388;17.798;2024-02-21T13:55:05;4.10;99.90
12688;DHT22;6408;59.388;17.798;2024-02-21T13:57:35;4.10;99.90
12688;DHT22;6408;59.388;17.798;2024-02-21T14:00:06;4.10;99.90
12688;DHT22;6408;59.388;17.798;2024-02-21T14:02:36;4.00;99.90
12688;DHT22;6408;59.388;17.798;2024-02-21T14:05:04;4.00;99.90
12688;DHT22;6408;59.388;17.798;2024-02-21T14:07:36;4.00;99.90
12688;DHT22;6408;59.388;17.798;2024-02-21T14:10:10;4.00;99.90
12688;DHT22;6408;59.388;17.798;2024-02-21T14:12:37;4.00;99.90
12688;DHT22;6408;59.388;17.798;2024-02-21T14:15:11;4.00;99.90
12688;DHT22;6408;59.388;17.798;2024-02-21T14:17:39;4.00;99.90
12688;DHT22;6408;59.388;17.798;2024-02-21T14:20:08;3.90;99.90
12688;DHT22;6408;59.388;17.798;2024-02-21T14:22:39;3.90;99.90
12688;DHT22;6408;59.388;17.798;2024-02-21T14:25:09;4.00;99.90
12688;DHT22;6408;59.388;17.798;2024-02-21T14:27:41;3.90;99.90
12688;DHT22;6408;59.388;17.798;2024-02-21T14:30:11;4.00;99.90
12688;DHT22;6408;59.388;17.798;2024-02-21T14:32:41;3.90;99.90
12688;DHT22;6408;59.388;17.798;2024-02-21T14:35:10;3.90;99.90
12688;DHT22;6408;59.388;17.798;2024-02-21T14:37:37;4.00;99.90
12688;DHT22;6408;59.388;17.798;2024-02-21T14:40:08;4.00;99.90
12688;DHT22;6408;59.388;17.798;2024-02-21T14:42:37;4.00;99.90
12688;DHT22;6408;59.388;17.798;2024-02-21T14:45:06;4.00;99.90
12688;DHT22;6408;59.388;17.798;2024-02-21T14:47:38;4.00;99.90
12688;DHT22;6408;59.388;17.798;2024-02-21T14:52:51;4.00;99.90
12688;DHT22;6408;59.388;17.798;2024-02-21T14:55:19;4.00;99.90
12688;DHT22;6408;59.388;17.798;2024-02-21T14:57:46;4.00;99.90
12688;DHT22;6408;59.388;17.798;2024-02-21T15:00:14;4.00;99.90
12688;DHT22;6408;59.388;17.798;2024-02-21T15:02:43;4.00;99.90
12688;DHT22;6408;59.388;17.798;2024-02-21T15:05:11;4.00;99.90
12688;DHT22;6408;59.388;17.798;2024-02-21T15:07:39;4.00;99.90
12688;DHT22;6408;59.388;17.798;2024-02-21T15:10:07;4.00;99.90
12688;DHT22;6408;59.388;17.798;2024-02-21T15:12:37;4.00;99.90
12688;DHT22;6408;59.388;17.798;2024-02-21T15:15:06;4.00;99.90
12688;DHT22;6408;59.388;17.798;2024-02-21T15:17:35;3.90;99.90
12688;DHT22;6408;59.388;17.798;2024-02-21T15:20:07;3.90;99.90
12688;DHT22;6408;59.388;17.798;2024-02-21T15:22:34;3.80;99.90
12688;DHT22;6408;59.388;17.798;2024-02-21T15:25:03;3.90;99.90
12688;DHT22;6408;59.388;17.798;2024-02-21T15:27:31;3.80;99.90
12688;DHT22;6408;59.388;17.798;2024-02-21T15:30:02;3.80;99.90
12688;DHT22;6408;59.388;17.798;2024-02-21T15:32:32;3.80;99.90
12688;DHT22;6408;59.388;17.798;2024-02-21T15:35:05;3.80;99.90
12688;DHT22;6408;59.388;17.798;2024-02-21T15:37:32;3.70;99.90
12688;DHT22;6408;59.388;17.798;2024-02-21T15:40:00;3.70;99.90
12688;DHT22;6408;59.388;17.798;2024-02-21T15:42:29;3.70;99.90
12688;DHT22;6408;59.388;17.798;2024-02-21T15:44:57;3.70;99.90
12688;DHT22;6408;59.388;17.798;2024-02-21T15:47:31;3.70;99.90
12688;DHT22;6408;59.388;17.798;2024-02-21T15:49:58;3.70;99.90
12688;DHT22;6408;59.388;17.798;2024-02-21T15:52:29;3.70;99.90
12688;DHT22;6408;59.388;17.798;2024-02-21T15:55:15;3.70;99.90
12688;DHT22;6408;59.388;17.798;2024-02-21T15:57:43;3.70;99.90
12688;DHT22;6408;59.388;17.798;2024-02-21T16:00:11;3.70;99.90